sensor_id;sensor_type;location;lat;lon;timestamp;pressure;altitude;pressure_sealevel;temperature;humidity
5522;BME280;2783;48.730;8.006;2022-11-20T00:01:18;99708.06;;;9.22;100.00
5522;BME280;2783;48.730;8.006;2022-11-20T00:03:44;99708.91;;;9.24;100.00
5522;BME280;2783;48.730;8.006;2022-11-20T00:06:13;99703.72;;;9.19;100.00
5522;BME280;2783;48.730;8.006;2022-11-20T00:08:39;99697.63;;;9.16;100.00
5522;BME280;2783;48.730;8.006;2022-11-20T00:11:10;99698.41;;;9.19;100.00
5522;BME280;2783;48.730;8.006;2022-11-20T00:13:36;99706.09;;;9.28;100.00
5522;BME280;2783;48.730;8.006;2022-11-20T00:16:03;99709.63;;;9.29;100.00
5522;BME280;2783;48.730;8.006;2022-11-20T00:18:29;99710.63;;;9.25;100.00
5522;BME280;2783;48.730;8.006;2022-11-20T00:21:03;99714.94;;;9.27;100.00
5522;BME280;2783;48.730;8.006;2022-11-20T00:23:28;99717.66;;;9.26;100.00
5522;BME280;2783;48.730;8.006;2022-11-20T00:25:54;99708.03;;;9.23;100.00
5522;BME280;2783;48.730;8.006;2022-11-20T00:28:19;99715.94;;;9.25;100.00
5522;BME280;2783;48.730;8.006;2022-11-20T00:30:45;99712.28;;;9.29;100.00
5522;BME280;2783;48.730;8.006;2022-11-20T00:33:10;99708.59;;;9.33;100.00
5522;BME280;2783;48.730;8.006;2022-11-20T00:35:36;99705.88;;;9.34;100.00
5522;BME280;2783;48.730;8.006;2022-11-20T00:38:01;99704.94;;;9.37;100.00
5522;BME280;2783;48.730;8.006;2022-11-20T00:40:26;99713.69;;;9.39;100.00
5522;BME280;2783;48.730;8.006;2022-11-20T00:42:52;99711.84;;;9.41;100.00
5522;BME280;2783;48.730;8.006;2022-11-20T00:45:17;99707.47;;;9.40;100.00
5522;BME280;2783;48.730;8.006;2022-11-20T00:47:42;99699.63;;;9.37;100.00
5522;BME280;2783;48.730;8.006;2022-11-20T00:50:08;99709.94;;;9.46;100.00
5522;BME280;2783;48.730;8.006;2022-11-20T00:52:34;99711.69;;;9.47;100.00
5522;BME280;2783;48.730;8.006;2022-11-20T00:54:59;99708.09;;;9.48;100.00
5522;BME280;2783;48.730;8.006;2022-11-20T00:57:24;99698.53;;;9.43;100.00
5522;BME280;2783;48.730;8.006;2022-11-20T00:59:50;99715.91;;;9.53;100.00
5522;BME280;2783;48.730;8.006;2022-11-20T01:02:15;99716.78;;;9.53;100.00
5522;BME280;2783;48.730;8.006;2022-11-20T01:04:42;99710.44;;;9.57;100.00
5522;BME280;2783;48.730;8.006;2022-11-20T01:07:07;99709.63;;;9.55;100.00
5522;BME280;2783;48.730;8.006;2022-11-20T01:09:32;99716.50;;;9.61;100.00
5522;BME280;2783;48.730;8.006;2022-11-20T01:11:58;99717.44;;;9.60;100.00
5522;BME280;2783;48.730;8.006;2022-11-20T01:14:24;99716.44;;;9.62;100.00
5522;BME280;2783;48.730;8.006;2022-11-20T01:16:50;99717.34;;;9.63;100.00
5522;BME280;2783;48.730;8.006;2022-11-20T01:19:21;99718.22;;;9.63;100.00
5522;BME280;2783;48.730;8.006;2022-11-20T01:21:51;99716.38;;;9.65;100.00
5522;BME280;2783;48.730;8.006;2022-11-20T01:24:19;99711.91;;;9.66;100.00
5522;BME280;2783;48.730;8.006;2022-11-20T01:26:48;99721.59;;;9.68;100.00
5522;BME280;2783;48.730;8.006;2022-11-20T01:29:17;99727.72;;;9.69;100.00
5522;BME280;2783;48.730;8.006;2022-11-20T01:31:43;99715.72;;;9.59;100.00
5522;BME280;2783;48.730;8.006;2022-11-20T01:34:12;99731.59;;;9.60;100.00
5522;BME280;2783;48.730;8.006;2022-11-20T01:36:38;99715.78;;;9.56;100.00
5522;BME280;2783;48.730;8.006;2022-11-20T01:39:26;99721.75;;;9.62;100.00
5522;BME280;2783;48.730;8.006;2022-11-20T01:41:52;99726.13;;;9.65;100.00
5522;BME280;2783;48.730;8.006;2022-11-20T01:44:59;99719.03;;;9.65;100.00
5522;BME280;2783;48.730;8.006;2022-11-20T01:47:28;99722.63;;;9.63;100.00
5522;BME280;2783;48.730;8.006;2022-11-20T01:52:41;99705.94;;;9.59;100.00
5522;BME280;2783;48.730;8.006;2022-11-20T01:55:15;99708.75;;;9.55;100.00
5522;BME280;2783;48.730;8.006;2022-11-20T01:57:44;99716.66;;;9.56;100.00
5522;BME280;2783;48.730;8.006;2022-11-20T02:00:38;99708.88;;;9.52;100.00
5522;BME280;2783;48.730;8.006;2022-11-20T02:03:07;99711.47;;;9.53;100.00
5522;BME280;2783;48.730;8.006;2022-11-20T02:06:01;99716.88;;;9.50;100.00
5522;BME280;2783;48.730;8.006;2022-11-20T02:08:29;99708.19;;;9.45;100.00
5522;BME280;2783;48.730;8.006;2022-11-20T02:10:55;99718.72;;;9.48;100.00
5522;BME280;2783;48.730;8.006;2022-11-20T02:13:21;99708.16;;;9.47;100.00
5522;BME280;2783;48.730;8.006;2022-11-20T02:16:15;99704.78;;;9.42;100.00
5522;BME280;2783;48.730;8.006;2022-11-20T02:18:42;99708.97;;;9.49;100.00
5522;BME280;2783;48.730;8.006;2022-11-20T02:24:07;99712.47;;;9.49;100.00
5522;BME280;2783;48.730;8.006;2022-11-20T02:26:59;99712.41;;;9.52;100.00
5522;BME280;2783;48.730;8.006;2022-11-20T02:29:39;99708.88;;;9.52;100.00
5522;BME280;2783;48.730;8.006;2022-11-20T02:32:20;99704.50;;;9.49;100.00
5522;BME280;2783;48.730;8.006;2022-11-20T02:34:46;99701.06;;;9.46;100.00
5522;BME280;2783;48.730;8.006;2022-11-20T02:37:12;99704.50;;;9.49;100.00
5522;BME280;2783;48.730;8.006;2022-11-20T02:39:38;99703.50;;;9.53;100.00
5522;BME280;2783;48.730;8.006;2022-11-20T02:42:03;99703.56;;;9.52;100.00
5522;BME280;2783;48.730;8.006;2022-11-20T02:44:29;99681.75;;;9.42;100.00
5522;BME280;2783;48.730;8.006;2022-11-20T02:46:57;99702.88;;;9.45;100.00
5522;BME280;2783;48.730;8.006;2022-11-20T02:49:22;99692.28;;;9.45;100.00
5522;BME280;2783;48.730;8.006;2022-11-20T02:51:48;99695.75;;;9.47;100.00
5522;BME280;2783;48.730;8.006;2022-11-20T02:54:13;99694.81;;;9.48;100.00
5522;BME280;2783;48.730;8.006;2022-11-20T02:56:39;99702.69;;;9.51;100.00
5522;BME280;2783;48.730;8.006;2022-11-20T02:59:04;99704.50;;;9.49;100.00
5522;BME280;2783;48.730;8.006;2022-11-20T03:01:29;99702.69;;;9.51;100.00
5522;BME280;2783;48.730;8.006;2022-11-20T03:03:55;99713.19;;;9.54;100.00
5522;BME280;2783;48.730;8.006;2022-11-20T03:06:21;99714.19;;;9.52;100.00
5522;BME280;2783;48.730;8.006;2022-11-20T03:08:47;99701.00;;;9.49;100.00
5522;BME280;2783;48.730;8.006;2022-11-20T03:11:12;99715.06;;;9.52;100.00
5522;BME280;2783;48.730;8.006;2022-11-20T03:13:38;99711.56;;;9.50;100.00
5522;BME280;2783;48.730;8.006;2022-11-20T03:16:12;99708.81;;;9.53;100.00
5522;BME280;2783;48.730;8.006;2022-11-20T03:18:39;99707.97;;;9.51;100.00
5522;BME280;2783;48.730;8.006;2022-11-20T03:21:05;99707.94;;;9.53;100.00
5522;BME280;2783;48.730;8.006;2022-11-20T03:23:31;99707.97;;;9.51;100.00
5522;BME280;2783;48.730;8.006;2022-11-20T03:26:13;99703.50;;;9.53;100.00
5522;BME280;2783;48.730;8.006;2022-11-20T03:28:38;99702.56;;;9.54;100.00
5522;BME280;2783;48.730;8.006;2022-11-20T03:31:06;99700.94;;;9.50;100.00
5522;BME280;2783;48.730;8.006;2022-11-20T03:33:32;99701.56;;;9.58;100.00
5522;BME280;2783;48.730;8.006;2022-11-20T03:36:01;99709.53;;;9.58;100.00
5522;BME280;2783;48.730;8.006;2022-11-20T03:38:29;99699.13;;;9.52;100.00
5522;BME280;2783;48.730;8.006;2022-11-20T03:40:59;99708.69;;;9.56;100.00
5522;BME280;2783;48.730;8.006;2022-11-20T03:43:25;99704.22;;;9.58;100.00
5522;BME280;2783;48.730;8.006;2022-11-20T03:45:50;99692.00;;;9.53;100.00
5522;BME280;2783;48.730;8.006;2022-11-20T03:48:16;99696.25;;;9.58;100.00
5522;BME280;2783;48.730;8.006;2022-11-20T03:50:41;99692.06;;;9.51;100.00
5522;BME280;2783;48.730;8.006;2022-11-20T03:53:07;99685.16;;;9.46;100.00
5522;BME280;2783;48.730;8.006;2022-11-20T03:55:32;99693.75;;;9.54;100.00
5522;BME280;2783;48.730;8.006;2022-11-20T03:57:57;99697.25;;;9.54;100.00
5522;BME280;2783;48.730;8.006;2022-11-20T04:00:30;99691.16;;;9.52;100.00
5522;BME280;2783;48.730;8.006;2022-11-20T04:02:59;99695.44;;;9.56;100.00
5522;BME280;2783;48.730;8.006;2022-11-20T04:05:24;99684.91;;;9.53;100.00
5522;BME280;2783;48.730;8.006;2022-11-20T04:07:50;99688.41;;;9.55;100.00
5522;BME280;2783;48.730;8.006;2022-11-20T04:10:15;99693.72;;;9.55;100.00
5522;BME280;2783;48.730;8.006;2022-11-20T04:12:41;99688.41;;;9.55;100.00
5522;BME280;2783;48.730;8.006;2022-11-20T04:15:06;99691.94;;;9.54;100.00
5522;BME280;2783;48.730;8.006;2022-11-20T04:17:32;99691.16;;;9.52;100.00
5522;BME280;2783;48.730;8.006;2022-11-20T04:19:57;99691.06;;;9.55;100.00
5522;BME280;2783;48.730;8.006;2022-11-20T04:22:23;99695.66;;;9.50;100.00
5522;BME280;2783;48.730;8.006;2022-11-20T04:24:48;99690.34;;;9.50;100.00
5522;BME280;2783;48.730;8.006;2022-11-20T04:27:14;99687.78;;;9.47;100.00
5522;BME280;2783;48.730;8.006;2022-11-20T04:29:39;99694.66;;;9.53;100.00
5522;BME280;2783;48.730;8.006;2022-11-20T04:32:05;99685.03;;;9.50;100.00
5522;BME280;2783;48.730;8.006;2022-11-20T04:34:30;99678.19;;;9.43;100.00
5522;BME280;2783;48.730;8.006;2022-11-20T04:36:55;99678.19;;;9.43;100.00
5522;BME280;2783;48.730;8.006;2022-11-20T04:39:21;99689.72;;;9.42;100.00
5522;BME280;2783;48.730;8.006;2022-11-20T04:41:46;99687.91;;;9.43;100.00
5522;BME280;2783;48.730;8.006;2022-11-20T04:44:11;99686.25;;;9.40;100.00
5522;BME280;2783;48.730;8.006;2022-11-20T04:46:41;99689.81;;;9.39;100.00
5522;BME280;2783;48.730;8.006;2022-11-20T04:49:07;99680.13;;;9.38;100.00
5522;BME280;2783;48.730;8.006;2022-11-20T04:51:33;99688.91;;;9.40;100.00
5522;BME280;2783;48.730;8.006;2022-11-20T04:53:59;99692.31;;;9.44;100.00
5522;BME280;2783;48.730;8.006;2022-11-20T04:56:24;99693.22;;;9.43;100.00
5522;BME280;2783;48.730;8.006;2022-11-20T04:58:50;99688.78;;;9.43;100.00
5522;BME280;2783;48.730;8.006;2022-11-20T05:01:20;99684.19;;;9.48;100.00
5522;BME280;2783;48.730;8.006;2022-11-20T05:03:46;99681.84;;;9.39;100.00
5522;BME280;2783;48.730;8.006;2022-11-20T05:06:14;99680.00;;;9.41;100.00
5522;BME280;2783;48.730;8.006;2022-11-20T05:08:40;99681.72;;;9.44;100.00
5522;BME280;2783;48.730;8.006;2022-11-20T05:11:11;99687.00;;;9.44;100.00
5522;BME280;2783;48.730;8.006;2022-11-20T05:13:37;99678.19;;;9.43;100.00
5522;BME280;2783;48.730;8.006;2022-11-20T05:16:11;99682.50;;;9.46;100.00
5522;BME280;2783;48.730;8.006;2022-11-20T05:18:37;99679.00;;;9.45;100.00
5522;BME280;2783;48.730;8.006;2022-11-20T05:21:03;99680.00;;;9.41;100.00
5522;BME280;2783;48.730;8.006;2022-11-20T05:23:30;99681.75;;;9.42;100.00
5522;BME280;2783;48.730;8.006;2022-11-20T05:25:57;99682.81;;;9.37;100.00
5522;BME280;2783;48.730;8.006;2022-11-20T05:28:23;99680.13;;;9.38;100.00
5522;BME280;2783;48.730;8.006;2022-11-20T05:30:49;99677.63;;;9.33;100.00
5522;BME280;2783;48.730;8.006;2022-11-20T05:33:15;99678.28;;;9.40;100.00
5522;BME280;2783;48.730;8.006;2022-11-20T05:35:41;99654.84;;;9.26;100.00
5522;BME280;2783;48.730;8.006;2022-11-20T05:38:06;99671.28;;;9.38;100.00
5522;BME280;2783;48.730;8.006;2022-11-20T05:40:32;99678.28;;;9.40;100.00
5522;BME280;2783;48.730;8.006;2022-11-20T05:42:57;99676.53;;;9.39;100.00
5522;BME280;2783;48.730;8.006;2022-11-20T05:45:22;99654.78;;;9.28;100.00
5522;BME280;2783;48.730;8.006;2022-11-20T05:47:48;99671.53;;;9.30;100.00
5522;BME280;2783;48.730;8.006;2022-11-20T05:50:14;99673.38;;;9.28;100.00
5522;BME280;2783;48.730;8.006;2022-11-20T05:52:40;99674.34;;;9.25;100.00
5522;BME280;2783;48.730;8.006;2022-11-20T05:55:06;99676.94;;;9.27;100.00
5522;BME280;2783;48.730;8.006;2022-11-20T05:57:31;99675.03;;;9.32;100.00
5522;BME280;2783;48.730;8.006;2022-11-20T05:59:57;99675.03;;;9.32;100.00
5522;BME280;2783;48.730;8.006;2022-11-20T06:02:22;99679.19;;;9.39;100.00
5522;BME280;2783;48.730;8.006;2022-11-20T06:04:48;99677.47;;;9.38;100.00
5522;BME280;2783;48.730;8.006;2022-11-20T06:07:13;99660.94;;;9.30;100.00
5522;BME280;2783;48.730;8.006;2022-11-20T06:09:39;99665.25;;;9.32;100.00
5522;BME280;2783;48.730;8.006;2022-11-20T06:12:04;99677.63;;;9.33;100.00
5522;BME280;2783;48.730;8.006;2022-11-20T06:14:30;99679.34;;;9.34;100.00
5522;BME280;2783;48.730;8.006;2022-11-20T06:16:55;99679.19;;;9.39;100.00
5522;BME280;2783;48.730;8.006;2022-11-20T06:19:21;99673.25;;;9.31;100.00
5522;BME280;2783;48.730;8.006;2022-11-20T06:21:48;99692.38;;;9.42;100.00
5522;BME280;2783;48.730;8.006;2022-11-20T06:24:14;99687.16;;;9.39;100.00
5522;BME280;2783;48.730;8.006;2022-11-20T06:26:40;99671.53;;;9.30;100.00
5522;BME280;2783;48.730;8.006;2022-11-20T06:29:05;99687.19;;;9.38;100.00
5522;BME280;2783;48.730;8.006;2022-11-20T06:31:30;99674.34;;;9.25;100.00
5522;BME280;2783;48.730;8.006;2022-11-20T06:34:00;99682.16;;;9.30;100.00
5522;BME280;2783;48.730;8.006;2022-11-20T06:36:26;99681.53;;;9.22;100.00
5522;BME280;2783;48.730;8.006;2022-11-20T06:38:52;99679.06;;;9.16;100.00
5522;BME280;2783;48.730;8.006;2022-11-20T06:41:19;99681.72;;;9.16;100.00
5522;BME280;2783;48.730;8.006;2022-11-20T06:43:45;99681.72;;;9.16;100.00
5522;BME280;2783;48.730;8.006;2022-11-20T06:46:12;99673.03;;;9.11;100.00
5522;BME280;2783;48.730;8.006;2022-11-20T06:48:38;99688.69;;;9.20;100.00
5522;BME280;2783;48.730;8.006;2022-11-20T06:51:05;99676.47;;;9.14;100.00
5522;BME280;2783;48.730;8.006;2022-11-20T06:53:30;99684.25;;;9.20;100.00
5522;BME280;2783;48.730;8.006;2022-11-20T06:55:56;99675.63;;;9.14;100.00
5522;BME280;2783;48.730;8.006;2022-11-20T06:58:30;99689.50;;;9.22;100.00
5522;BME280;2783;48.730;8.006;2022-11-20T07:01:14;99698.38;;;9.21;100.00
5522;BME280;2783;48.730;8.006;2022-11-20T07:03:40;99697.34;;;9.25;100.00
5522;BME280;2783;48.730;8.006;2022-11-20T07:06:07;99696.63;;;9.20;100.00
5522;BME280;2783;48.730;8.006;2022-11-20T07:08:33;99696.63;;;9.20;100.00
5522;BME280;2783;48.730;8.006;2022-11-20T07:11:04;99701.75;;;9.26;100.00
5522;BME280;2783;48.730;8.006;2022-11-20T07:13:30;99700.88;;;9.25;100.00
5522;BME280;2783;48.730;8.006;2022-11-20T07:16:00;99704.50;;;9.23;100.00
5522;BME280;2783;48.730;8.006;2022-11-20T07:18:26;99712.34;;;9.26;100.00
5522;BME280;2783;48.730;8.006;2022-11-20T07:20:51;99717.75;;;9.23;100.00
5522;BME280;2783;48.730;8.006;2022-11-20T07:23:17;99718.59;;;9.25;100.00
5522;BME280;2783;48.730;8.006;2022-11-20T07:25:42;99711.44;;;9.27;100.00
5522;BME280;2783;48.730;8.006;2022-11-20T07:28:07;99701.16;;;9.16;100.00
5522;BME280;2783;48.730;8.006;2022-11-20T07:30:33;99719.47;;;9.25;100.00
5522;BME280;2783;48.730;8.006;2022-11-20T07:32:58;99719.41;;;9.27;100.00
5522;BME280;2783;48.730;8.006;2022-11-20T07:35:24;99722.78;;;9.32;100.00
5522;BME280;2783;48.730;8.006;2022-11-20T07:37:50;99711.56;;;9.22;100.00
5522;BME280;2783;48.730;8.006;2022-11-20T07:40:16;99729.97;;;9.28;100.00
5522;BME280;2783;48.730;8.006;2022-11-20T07:42:49;99725.50;;;9.30;100.00
5522;BME280;2783;48.730;8.006;2022-11-20T07:45:15;99722.91;;;9.29;100.00
5522;BME280;2783;48.730;8.006;2022-11-20T07:47:41;99736.97;;;9.31;100.00
5522;BME280;2783;48.730;8.006;2022-11-20T07:50:06;99724.72;;;9.27;100.00
5522;BME280;2783;48.730;8.006;2022-11-20T07:52:32;99735.03;;;9.36;100.00
5522;BME280;2783;48.730;8.006;2022-11-20T07:54:58;99727.44;;;9.25;100.00
5522;BME280;2783;48.730;8.006;2022-11-20T07:57:23;99735.13;;;9.33;100.00
5522;BME280;2783;48.730;8.006;2022-11-20T07:59:48;99730.81;;;9.30;100.00
5522;BME280;2783;48.730;8.006;2022-11-20T08:02:14;99733.59;;;9.26;100.00
5522;BME280;2783;48.730;8.006;2022-11-20T08:04:39;99738.88;;;9.26;100.00
5522;BME280;2783;48.730;8.006;2022-11-20T08:07:05;99736.06;;;9.32;100.00
5522;BME280;2783;48.730;8.006;2022-11-20T08:09:30;99737.72;;;9.34;100.00
5522;BME280;2783;48.730;8.006;2022-11-20T08:11:55;99750.09;;;9.36;100.00
5522;BME280;2783;48.730;8.006;2022-11-20T08:14:39;99749.13;;;9.38;100.00
5522;BME280;2783;48.730;8.006;2022-11-20T08:17:05;99738.72;;;9.32;100.00
5522;BME280;2783;48.730;8.006;2022-11-20T08:19:30;99756.09;;;9.42;100.00
5522;BME280;2783;48.730;8.006;2022-11-20T08:21:55;99750.84;;;9.39;100.00
5522;BME280;2783;48.730;8.006;2022-11-20T08:24:21;99766.41;;;9.51;100.00
5522;BME280;2783;48.730;8.006;2022-11-20T08:26:46;99761.91;;;9.53;100.00
5522;BME280;2783;48.730;8.006;2022-11-20T08:29:12;99767.13;;;9.56;100.00
5522;BME280;2783;48.730;8.006;2022-11-20T08:31:37;99771.59;;;9.54;100.00
5522;BME280;2783;48.730;8.006;2022-11-20T08:34:03;99747.34;;;9.39;100.00
5522;BME280;2783;48.730;8.006;2022-11-20T08:36:28;99751.69;;;9.41;100.00
5522;BME280;2783;48.730;8.006;2022-11-20T08:38:55;99775.22;;;9.52;100.00
5522;BME280;2783;48.730;8.006;2022-11-20T08:41:21;99776.13;;;9.52;100.00
5522;BME280;2783;48.730;8.006;2022-11-20T08:43:59;99787.53;;;9.54;100.00
5522;BME280;2783;48.730;8.006;2022-11-20T08:46:27;99783.03;;;9.56;100.00
5522;BME280;2783;48.730;8.006;2022-11-20T08:48:53;99775.97;;;9.57;100.00
5522;BME280;2783;48.730;8.006;2022-11-20T08:51:19;99765.56;;;9.49;100.00
5522;BME280;2783;48.730;8.006;2022-11-20T08:53:46;99781.44;;;9.51;100.00
5522;BME280;2783;48.730;8.006;2022-11-20T08:56:13;99791.00;;;9.56;100.00
5522;BME280;2783;48.730;8.006;2022-11-20T08:58:39;99780.50;;;9.53;100.00
5522;BME280;2783;48.730;8.006;2022-11-20T09:01:05;99783.03;;;9.56;100.00
5522;BME280;2783;48.730;8.006;2022-11-20T09:03:30;99770.75;;;9.54;100.00
5522;BME280;2783;48.730;8.006;2022-11-20T09:06:05;99776.00;;;9.55;100.00
5522;BME280;2783;48.730;8.006;2022-11-20T09:08:31;99795.09;;;9.66;100.00
5522;BME280;2783;48.730;8.006;2022-11-20T09:10:57;99789.75;;;9.68;100.00
5522;BME280;2783;48.730;8.006;2022-11-20T09:13:24;99797.09;;;9.86;100.00
5522;BME280;2783;48.730;8.006;2022-11-20T09:15:58;99798.59;;;9.94;100.00
5522;BME280;2783;48.730;8.006;2022-11-20T09:18:24;99796.75;;;9.96;100.00
5522;BME280;2783;48.730;8.006;2022-11-20T09:20:50;99798.50;;;9.97;100.00
5522;BME280;2783;48.730;8.006;2022-11-20T09:23:16;99786.13;;;9.96;100.00
5522;BME280;2783;48.730;8.006;2022-11-20T09:25:42;99799.72;;;10.13;100.00
5522;BME280;2783;48.730;8.006;2022-11-20T09:28:08;99805.03;;;10.13;100.00
5522;BME280;2783;48.730;8.006;2022-11-20T09:30:33;99806.63;;;10.19;100.00
5522;BME280;2783;48.730;8.006;2022-11-20T09:32:59;99807.50;;;10.19;100.00
5522;BME280;2783;48.730;8.006;2022-11-20T09:35:24;99810.94;;;10.23;100.00
5522;BME280;2783;48.730;8.006;2022-11-20T09:37:50;99809.00;;;10.28;100.00
5522;BME280;2783;48.730;8.006;2022-11-20T09:40:24;99811.59;;;10.29;100.00
5522;BME280;2783;48.730;8.006;2022-11-20T09:46:00;99815.88;;;10.33;100.00
5522;BME280;2783;48.730;8.006;2022-11-20T09:54:20;99819.72;;;10.49;100.00
5522;BME280;2783;48.730;8.006;2022-11-20T09:56:54;99823.84;;;10.58;100.00
5522;BME280;2783;48.730;8.006;2022-11-20T09:59:38;99826.13;;;10.69;100.00
5522;BME280;2783;48.730;8.006;2022-11-20T10:05:15;99824.41;;;11.14;100.00
5522;BME280;2783;48.730;8.006;2022-11-20T10:21:41;99808.38;;;12.85;91.39
5522;BME280;2783;48.730;8.006;2022-11-20T10:29:46;99794.00;;;12.87;85.72
5522;BME280;2783;48.730;8.006;2022-11-20T10:32:20;99776.88;;;13.11;87.29
5522;BME280;2783;48.730;8.006;2022-11-20T10:34:54;99788.47;;;13.31;85.67
5522;BME280;2783;48.730;8.006;2022-11-20T10:37:27;99792.69;;;13.35;83.38
5522;BME280;2783;48.730;8.006;2022-11-20T10:42:31;99788.94;;;14.95;78.51
5522;BME280;2783;48.730;8.006;2022-11-20T10:47:56;99769.91;;;14.84;68.23
5522;BME280;2783;48.730;8.006;2022-11-20T10:50:30;99776.69;;;14.74;67.81
5522;BME280;2783;48.730;8.006;2022-11-20T10:53:14;99771.44;;;14.73;66.62
5522;BME280;2783;48.730;8.006;2022-11-20T10:56:17;99773.69;;;13.95;66.64
5522;BME280;2783;48.730;8.006;2022-11-20T11:01:29;99766.28;;;13.29;70.02
5522;BME280;2783;48.730;8.006;2022-11-20T11:03:55;99763.16;;;13.56;69.56
5522;BME280;2783;48.730;8.006;2022-11-20T11:06:38;99734.22;;;14.99;67.41
5522;BME280;2783;48.730;8.006;2022-11-20T11:09:11;99736.75;;;15.96;62.47
5522;BME280;2783;48.730;8.006;2022-11-20T11:11:40;99735.44;;;16.32;61.64
5522;BME280;2783;48.730;8.006;2022-11-20T11:14:07;99722.63;;;16.93;56.71
5522;BME280;2783;48.730;8.006;2022-11-20T11:16:33;99739.91;;;17.03;53.82
5522;BME280;2783;48.730;8.006;2022-11-20T11:19:25;99730.16;;;16.45;56.06
5522;BME280;2783;48.730;8.006;2022-11-20T11:21:53;99730.28;;;16.14;55.96
5522;BME280;2783;48.730;8.006;2022-11-20T11:24:24;99721.56;;;16.10;57.09
5522;BME280;2783;48.730;8.006;2022-11-20T11:26:58;99714.19;;;16.14;55.38
5522;BME280;2783;48.730;8.006;2022-11-20T11:29:25;99716.25;;;15.95;59.74
5522;BME280;2783;48.730;8.006;2022-11-20T11:32:10;99705.56;;;16.52;59.63
5522;BME280;2783;48.730;8.006;2022-11-20T11:34:36;99711.84;;;17.50;52.00
5522;BME280;2783;48.730;8.006;2022-11-20T11:37:02;99700.31;;;16.65;51.21
5522;BME280;2783;48.730;8.006;2022-11-20T11:39:30;99699.59;;;16.04;51.90
5522;BME280;2783;48.730;8.006;2022-11-20T11:41:57;99695.19;;;15.73;53.82
5522;BME280;2783;48.730;8.006;2022-11-20T11:47:26;99684.91;;;14.55;58.27
5522;BME280;2783;48.730;8.006;2022-11-20T11:52:28;99690.25;;;13.88;61.64
5522;BME280;2783;48.730;8.006;2022-11-20T11:55:02;99680.94;;;13.61;64.31
5522;BME280;2783;48.730;8.006;2022-11-20T11:57:49;99674.09;;;13.39;63.45
5522;BME280;2783;48.730;8.006;2022-11-20T12:00:18;99674.75;;;13.25;64.68
5522;BME280;2783;48.730;8.006;2022-11-20T12:08:03;99666.38;;;13.50;60.91
5522;BME280;2783;48.730;8.006;2022-11-20T12:13:23;99673.34;;;14.05;57.06
5522;BME280;2783;48.730;8.006;2022-11-20T12:15:51;99663.63;;;14.85;57.53
5522;BME280;2783;48.730;8.006;2022-11-20T12:18:20;99674.84;;;15.69;53.51
5522;BME280;2783;48.730;8.006;2022-11-20T12:46:26;99672.63;;;13.32;59.09
5522;BME280;2783;48.730;8.006;2022-11-20T12:49:12;99659.94;;;13.37;59.11
5522;BME280;2783;48.730;8.006;2022-11-20T12:52:10;99664.19;;;13.41;59.43
5522;BME280;2783;48.730;8.006;2022-11-20T12:55:08;99656.94;;;13.43;60.83
5522;BME280;2783;48.730;8.006;2022-11-20T12:57:57;99667.59;;;13.26;58.26
5522;BME280;2783;48.730;8.006;2022-11-20T13:00:24;99665.84;;;13.07;58.24
5522;BME280;2783;48.730;8.006;2022-11-20T13:03:14;99662.63;;;12.99;58.15
5522;BME280;2783;48.730;8.006;2022-11-20T13:08:23;99649.28;;;12.99;59.73
5522;BME280;2783;48.730;8.006;2022-11-20T13:10:54;99647.16;;;13.07;59.71
5522;BME280;2783;48.730;8.006;2022-11-20T13:16:48;99639.03;;;12.90;58.73
5522;BME280;2783;48.730;8.006;2022-11-20T13:19:17;99631.56;;;12.80;58.20
5522;BME280;2783;48.730;8.006;2022-11-20T13:21:45;99634.81;;;12.86;58.62
5522;BME280;2783;48.730;8.006;2022-11-20T13:24:23;99636.38;;;12.90;59.48
5522;BME280;2783;48.730;8.006;2022-11-20T13:29:27;99624.13;;;12.68;58.39
5522;BME280;2783;48.730;8.006;2022-11-20T13:32:17;99630.38;;;12.85;58.92
5522;BME280;2783;48.730;8.006;2022-11-20T13:34:53;99628.06;;;12.96;60.54
5522;BME280;2783;48.730;8.006;2022-11-20T13:37:35;99620.88;;;12.80;59.55
5522;BME280;2783;48.730;8.006;2022-11-20T13:43:01;99609.63;;;12.55;59.02
5522;BME280;2783;48.730;8.006;2022-11-20T13:45:29;99605.28;;;12.52;59.98
5522;BME280;2783;48.730;8.006;2022-11-20T13:47:57;99611.69;;;12.30;59.87
5522;BME280;2783;48.730;8.006;2022-11-20T13:50:40;99600.75;;;12.17;61.04
5522;BME280;2783;48.730;8.006;2022-11-20T13:53:27;99602.53;;;12.17;60.47
5522;BME280;2783;48.730;8.006;2022-11-20T13:56:18;99596.91;;;12.04;61.22
5522;BME280;2783;48.730;8.006;2022-11-20T14:01:37;99581.75;;;11.86;62.13
5522;BME280;2783;48.730;8.006;2022-11-20T14:04:07;99593.84;;;11.93;62.67
5522;BME280;2783;48.730;8.006;2022-11-20T14:06:42;99580.31;;;11.98;62.81
5522;BME280;2783;48.730;8.006;2022-11-20T14:09:25;99557.63;;;11.89;63.41
5522;BME280;2783;48.730;8.006;2022-11-20T14:11:51;99572.22;;;11.80;62.27
5522;BME280;2783;48.730;8.006;2022-11-20T14:14:21;99563.34;;;11.80;63.17
5522;BME280;2783;48.730;8.006;2022-11-20T14:16:47;99571.34;;;11.80;63.53
5522;BME280;2783;48.730;8.006;2022-11-20T14:19:25;99554.03;;;11.70;62.77
5522;BME280;2783;48.730;8.006;2022-11-20T14:22:06;99553.09;;;11.71;61.98
5522;BME280;2783;48.730;8.006;2022-11-20T14:24:32;99536.03;;;11.75;62.68
5522;BME280;2783;48.730;8.006;2022-11-20T14:26:58;99551.56;;;11.65;61.44
5522;BME280;2783;48.730;8.006;2022-11-20T14:29:28;99539.63;;;11.54;61.37
5522;BME280;2783;48.730;8.006;2022-11-20T14:31:55;99544.59;;;11.61;62.49
5522;BME280;2783;48.730;8.006;2022-11-20T14:34:24;99541.03;;;11.62;61.82
5522;BME280;2783;48.730;8.006;2022-11-20T14:36:57;99536.00;;;11.55;61.88
5522;BME280;2783;48.730;8.006;2022-11-20T14:39:34;99540.28;;;11.59;62.40
5522;BME280;2783;48.730;8.006;2022-11-20T14:42:00;99531.56;;;11.55;63.28
5522;BME280;2783;48.730;8.006;2022-11-20T14:44:35;99525.13;;;11.41;62.81
5522;BME280;2783;48.730;8.006;2022-11-20T14:47:03;99529.31;;;11.46;64.00
5522;BME280;2783;48.730;8.006;2022-11-20T14:49:29;99517.78;;;11.46;64.56
5522;BME280;2783;48.730;8.006;2022-11-20T14:52:17;99522.53;;;11.39;63.49
5522;BME280;2783;48.730;8.006;2022-11-20T14:54:45;99505.94;;;11.33;64.50
5522;BME280;2783;48.730;8.006;2022-11-20T14:57:30;99500.63;;;11.33;64.47
5522;BME280;2783;48.730;8.006;2022-11-20T15:02:48;99503.75;;;11.22;63.11
5522;BME280;2783;48.730;8.006;2022-11-20T15:05:15;99504.63;;;11.23;63.98
5522;BME280;2783;48.730;8.006;2022-11-20T15:07:45;99505.44;;;11.25;64.65
5522;BME280;2783;48.730;8.006;2022-11-20T15:12:47;99503.00;;;11.19;65.08
5522;BME280;2783;48.730;8.006;2022-11-20T15:15:17;99501.44;;;11.15;64.48
5522;BME280;2783;48.730;8.006;2022-11-20T15:17:44;99501.44;;;11.15;66.17